Rae, Canada
Current Conditions -  °F | °C
As of 3:32 AM on Wednesday 22 Oct 2014 (Local Time) from CYZF Reporting Station
Overcast Overcast  
Wind Chill: 21°   Ceiling: 700
Heat Index: 30°   Visibility: 15mi
Dew Point: 28°   Wind: 10mph
Humidity: 93%   Direction: 20°NNE
Pressure: 29.66"   Gusts: NA
Location:  62.83°N, 116.04°W
Report Text: CYZF 220932Z 02009KT 15SM OVC007 M01/M02 A2966 RMK SC8 SLP057
Loading
Personal Weather Stations






























Interactive Weather Map
Tropical Storm Tracking
New forecast layout! Learn more

10-Day Weather Forecast

Advertisements
Track Severe Weather on mobile